Rainbow Quest — ZDJZ7 — position and weather

sailwx.info

Track history (hours):
 
Tides and Currents Weather Stations Pressure Air Temp Water Temp Dewpoint Dewpoint Depression Visibility Wind Speed Wind Dir Waves Ship Positions

Rainbow Quest

Last reported at 2017-Oct-20 15:11 UTC. Time now 2017-Oct-20 16:18 UTC.
Position N 55°22' E 011°02'.

Length 180 m; draft 10.6 m.

Type: Cargo ship. MMSI: 236111696.

Date/timePositionNaut miles runAvg speedWind from/ knotsBaromVisibWave heightAir tempDewpointWater temp
2017-Oct-20 15:11N 55°22' E 011°02'212.3
2017-Oct-20 15:00N 55°20' E 011°02'611.3
2017-Oct-20 14:30N 55°14' E 011°06'1010.1
2017-Oct-20 13:30N 55°05' E 010°59'611.4
2017-Oct-20 13:00N 54°59' E 010°59'611.4
2017-Oct-20 12:30N 54°55' E 010°52'612.6
2017-Oct-20 12:00N 54°49' E 010°50'612.2
2017-Oct-20 11:30N 54°43' E 010°47'510.8
2017-Oct-20 11:00N 54°39' E 010°53'612.2
2017-Oct-20 10:30N 54°36' E 011°02'612.0
2017-Oct-20 10:00N 54°36' E 011°13'612.7
2017-Oct-20 09:30N 54°33' E 011°22'812.5
2017-Oct-20 08:52N 54°29' E 011°35'512.1
2017-Oct-20 08:29N 54°27' E 011°42'1611.6
2017-Oct-20 07:06N 54°26' E 012°09'110.8
2017-Oct-20 07:00N 54°27' E 012°11'611.3
2017-Oct-20 06:30N 54°32' E 012°14'510.7
2017-Oct-20 06:00N 54°37' E 012°18'4111.0
2017-Oct-20 02:15N 54°46' E 013°28'411.9
2017-Oct-20 01:55N 54°46' E 013°35'1711.5
2017-Oct-20 00:28N 54°42' E 014°03'611.7
2017-Oct-19 23:59N 54°40' E 014°12'13011.4
2017-Oct-19 12:35N 54°57' E 017°56'111.4
2017-Oct-19 12:28N 54°57' E 017°58'511.3
2017-Oct-19 12:00N 54°57' E 018°07'611.3
2017-Oct-19 11:30N 54°57' E 018°17'611.3
2017-Oct-19 11:00N 54°57' E 018°27'611.2
2017-Oct-19 10:30N 54°57' E 018°36'611.6
2017-Oct-19 10:00N 54°55' E 018°46'611.8
2017-Oct-19 09:30N 54°52' E 018°55'611.9
2017-Oct-19 09:00N 54°50' E 019°04'612.0
2017-Oct-19 08:30N 54°47' E 019°14'611.6
2017-Oct-19 08:00N 54°45' E 019°23'611.4
2017-Oct-19 07:30N 54°43' E 019°32'611.4
2017-Oct-19 06:57N 54°40' E 019°43'3 0.4
2017-Oct-19 00:24N 54°39' E 019°47'0 0.0
2017-Oct-19 00:00N 54°39' E 019°47'0 0.0
2017-Oct-18 23:30N 54°39' E 019°47'0 0.0
2017-Oct-18 22:57N 54°39' E 019°47'0 0.0
2017-Oct-18 22:27N 54°39' E 019°47'0 0.0
2017-Oct-18 21:57N 54°39' E 019°47'0 0.0
2017-Oct-18 15:54N 54°39' E 019°47'0 0.0
2017-Oct-18 04:36N 54°39' E 019°47'0 0.0
2017-Oct-18 04:30N 54°39' E 019°47'0 0.0
2017-Oct-18 04:00N 54°39' E 019°47'0 0.0
2017-Oct-18 03:27N 54°39' E 019°47'0 0.0
2017-Oct-18 03:00N 54°39' E 019°47'0 0.0
2017-Oct-18 02:24N 54°39' E 019°47'0 0.0
2017-Oct-18 02:00N 54°39' E 019°47'0 0.0
2017-Oct-18 01:30N 54°39' E 019°47'0 0.0
2017-Oct-18 00:57N 54°39' E 019°47'0 0.0
2017-Oct-18 00:30N 54°39' E 019°47'0 0.0
2017-Oct-18 00:00N 54°39' E 019°47'0 0.0
2017-Oct-17 23:30N 54°39' E 019°47'0 0.1
2017-Oct-17 23:00N 54°39' E 019°47'0 0.2
2017-Oct-17 22:24N 54°39' E 019°47'0 0.3
2017-Oct-17 22:00N 54°39' E 019°47'2 3.9
2017-Oct-17 21:30N 54°40' E 019°43'3 6.3
2017-Oct-17 21:00N 54°40' E 019°38'5 9.7
2017-Oct-17 20:30N 54°41' E 019°30'611.5
2017-Oct-17 20:00N 54°42' E 019°20'611.1
2017-Oct-17 19:30N 54°43' E 019°10'611.4
2017-Oct-17 19:00N 54°41' E 019°01'611.2
2017-Oct-17 18:30N 54°37' E 018°55'611.3
2017-Oct-17 18:00N 54°32' E 018°49'4 7.5
2017-Oct-17 17:30N 54°32' E 018°43'5 9.5
2017-Oct-17 17:00N 54°32' E 018°35'1 2.9
2017-Oct-17 16:30N 54°32' E 018°32'0 0.0
2017-Oct-17 16:00N 54°32' E 018°32'0 0.0
2017-Oct-17 15:30N 54°32' E 018°32'0 0.0
2017-Oct-17 15:00N 54°32' E 018°32'0 0.0
2017-Oct-17 14:30N 54°32' E 018°32'0 0.0
2017-Oct-17 14:00N 54°32' E 018°32'0 0.0
2017-Oct-17 13:30N 54°32' E 018°32'0 0.0
2017-Oct-17 13:00N 54°32' E 018°32'0 0.0
2017-Oct-17 12:30N 54°32' E 018°32'0 0.0
2017-Oct-17 12:00N 54°32' E 018°32'0 0.0
2017-Oct-17 11:30N 54°32' E 018°32'0 0.0
2017-Oct-17 11:00N 54°32' E 018°32'0 0.0
2017-Oct-17 10:30N 54°32' E 018°32'0 0.0
2017-Oct-17 10:00N 54°32' E 018°32'0 0.0
2017-Oct-17 09:30N 54°32' E 018°32'0 0.0
2017-Oct-17 09:00N 54°32' E 018°32'0 0.0
2017-Oct-17 08:30N 54°32' E 018°32'0 0.0
2017-Oct-17 08:00N 54°32' E 018°32'0 0.0
2017-Oct-17 07:30N 54°32' E 018°32'0 0.0
2017-Oct-17 07:00N 54°32' E 018°32'0 0.0
2017-Oct-17 06:30N 54°32' E 018°32'0 0.0
2017-Oct-17 06:00N 54°32' E 018°32'0 0.0
2017-Oct-17 05:30N 54°32' E 018°32'0 0.0
2017-Oct-17 05:00N 54°32' E 018°32'0 0.0
2017-Oct-17 04:30N 54°32' E 018°32'0 0.0
2017-Oct-17 04:00N 54°32' E 018°32'0 0.0
2017-Oct-17 03:30N 54°32' E 018°32'0 0.0
2017-Oct-17 03:00N 54°32' E 018°32'0 0.0
2017-Oct-17 02:30N 54°32' E 018°32'0 0.0
2017-Oct-17 02:00N 54°32' E 018°32'0 0.0
2017-Oct-17 01:30N 54°32' E 018°32'0 0.0
2017-Oct-17 01:00N 54°32' E 018°32'0 0.0
2017-Oct-17 00:30N 54°32' E 018°32'0 0.0
2017-Oct-17 00:00N 54°32' E 018°32'0 0.0
2017-Oct-16 23:30N 54°32' E 018°32'0 0.0
2017-Oct-16 23:00N 54°32' E 018°32'0 0.0
2017-Oct-16 22:30N 54°32' E 018°32'0 0.0
2017-Oct-16 22:00N 54°32' E 018°32'0 0.0
2017-Oct-16 21:30N 54°32' E 018°32'0 0.0
2017-Oct-16 21:00N 54°32' E 018°32'0 0.0
2017-Oct-16 20:30N 54°32' E 018°32'0 0.0
2017-Oct-16 20:00N 54°32' E 018°32'0 0.0
2017-Oct-16 19:30N 54°32' E 018°32'0 0.0
2017-Oct-16 19:00N 54°32' E 018°32'0 0.0
2017-Oct-16 18:30N 54°32' E 018°32'0 0.0
2017-Oct-16 18:00N 54°32' E 018°32'0 0.0
2017-Oct-16 17:30N 54°32' E 018°32'0 0.0
2017-Oct-16 17:00N 54°32' E 018°32'0 0.0
2017-Oct-16 16:30N 54°32' E 018°32'0 0.0
2017-Oct-16 16:00N 54°32' E 018°32'0 0.0
2017-Oct-16 15:30N 54°32' E 018°32'0 0.0
2017-Oct-16 15:00N 54°32' E 018°32'0 0.0
2017-Oct-16 14:00N 54°32' E 018°32'0 0.0
2017-Oct-16 13:30N 54°32' E 018°32'0 0.0
2017-Oct-16 13:00N 54°32' E 018°32'0 0.0
2017-Oct-16 12:30N 54°32' E 018°32'0 0.0
2017-Oct-16 12:00N 54°32' E 018°32'0 0.0
2017-Oct-16 11:30N 54°32' E 018°32'0 0.0
2017-Oct-16 11:00N 54°32' E 018°32'0 0.0
2017-Oct-16 10:30N 54°32' E 018°32'0 0.0
2017-Oct-16 10:00N 54°32' E 018°32'0 0.0
2017-Oct-16 09:30N 54°32' E 018°32'0 0.0
2017-Oct-16 09:00N 54°32' E 018°32'0 0.0
2017-Oct-16 08:30N 54°32' E 018°32'0 0.0
2017-Oct-16 08:00N 54°32' E 018°32'0 0.0
2017-Oct-16 07:30N 54°32' E 018°32'0 0.0
2017-Oct-16 07:00N 54°32' E 018°32'0 0.0
2017-Oct-16 06:30N 54°32' E 018°32'0 0.0
2017-Oct-16 06:00N 54°32' E 018°32'0 0.0
2017-Oct-16 05:30N 54°32' E 018°32'0 0.0
2017-Oct-16 05:00N 54°32' E 018°32'0 0.0
2017-Oct-16 04:30N 54°32' E 018°32'0 0.0
2017-Oct-16 04:00N 54°32' E 018°32'0 0.0
2017-Oct-16 03:30N 54°32' E 018°32'0 0.0
2017-Oct-16 03:00N 54°32' E 018°32'0 0.0
2017-Oct-16 02:30N 54°32' E 018°32'0 0.0
2017-Oct-16 02:00N 54°32' E 018°32'0 0.0
2017-Oct-16 01:30N 54°32' E 018°32'0 0.0
2017-Oct-16 01:00N 54°32' E 018°32'0 0.0
2017-Oct-16 00:30N 54°32' E 018°32'0 0.0
2017-Oct-16 00:00N 54°32' E 018°32'0 0.0
2017-Oct-15 23:30N 54°32' E 018°32'0 0.0
2017-Oct-15 23:00N 54°32' E 018°32'0 0.0
2017-Oct-15 22:30N 54°32' E 018°32'0 0.0
2017-Oct-15 22:00N 54°32' E 018°32'0 0.0
2017-Oct-15 21:30N 54°32' E 018°32'0 0.0
2017-Oct-15 21:00N 54°32' E 018°32'0 0.0
2017-Oct-15 20:27N 54°32' E 018°32'0 0.0
2017-Oct-15 20:00N 54°32' E 018°32'0 0.0
2017-Oct-15 19:30N 54°32' E 018°32'0 0.0
2017-Oct-15 19:00N 54°32' E 018°32'0 0.0
2017-Oct-15 18:30N 54°32' E 018°32'0 0.0
2017-Oct-15 18:00N 54°32' E 018°32'0 0.0
2017-Oct-15 17:30N 54°32' E 018°32'0 0.0
2017-Oct-15 17:00N 54°32' E 018°32'0 0.0
2017-Oct-15 16:30N 54°32' E 018°32'0 0.0
2017-Oct-15 16:00N 54°32' E 018°32'0 0.0
2017-Oct-15 15:30N 54°32' E 018°32'0 0.0
2017-Oct-15 15:00N 54°32' E 018°32'0 0.0
2017-Oct-15 14:00N 54°32' E 018°32'0 0.0
2017-Oct-15 13:30N 54°32' E 018°32'0 0.0
2017-Oct-15 13:00N 54°32' E 018°32'0 0.0
2017-Oct-15 12:30N 54°32' E 018°32'0 0.0
2017-Oct-15 12:00N 54°32' E 018°32'0 0.0
2017-Oct-15 11:30N 54°32' E 018°32'0 0.0
2017-Oct-15 11:00N 54°32' E 018°32'0 0.0
2017-Oct-15 10:30N 54°32' E 018°32'0 0.0
2017-Oct-15 10:00N 54°32' E 018°32'0 0.0
2017-Oct-15 09:30N 54°32' E 018°32'0 0.0
2017-Oct-15 09:00N 54°32' E 018°32'0 0.0
2017-Oct-15 08:30N 54°32' E 018°32'0 0.0
2017-Oct-15 08:00N 54°32' E 018°32'0 0.0
2017-Oct-15 07:30N 54°32' E 018°32'0 0.0
2017-Oct-15 07:00N 54°32' E 018°32'0 0.0
2017-Oct-15 06:30N 54°32' E 018°32'0 0.0
2017-Oct-15 06:00N 54°32' E 018°32'0 0.0
2017-Oct-15 05:30N 54°32' E 018°32'0 0.0
2017-Oct-15 05:00N 54°32' E 018°32'0 0.0
2017-Oct-15 04:30N 54°32' E 018°32'0 0.0
2017-Oct-15 04:00N 54°32' E 018°32'0 0.0
2017-Oct-15 03:30N 54°32' E 018°32'0 0.0
2017-Oct-15 03:00N 54°32' E 018°32'0 0.0
2017-Oct-15 02:30N 54°32' E 018°32'0 0.0
2017-Oct-15 02:00N 54°32' E 018°32'0 0.0
2017-Oct-15 01:30N 54°32' E 018°32'0 0.0
2017-Oct-15 01:00N 54°32' E 018°32'0 0.0
2017-Oct-15 00:30N 54°32' E 018°32'0 0.0
2017-Oct-15 00:00N 54°32' E 018°32'0 0.0
2017-Oct-14 23:30N 54°32' E 018°32'0 0.0
2017-Oct-14 23:00N 54°32' E 018°32'0 0.0
2017-Oct-14 22:30N 54°32' E 018°32'0 0.0
2017-Oct-14 22:00N 54°32' E 018°32'0 0.0
2017-Oct-14 21:30N 54°32' E 018°32'0 0.0
2017-Oct-14 21:00N 54°32' E 018°32'0 0.0
2017-Oct-14 20:30N 54°32' E 018°32'0 0.0
2017-Oct-14 20:00N 54°32' E 018°32'0 0.0
2017-Oct-14 19:30N 54°32' E 018°32'0 0.0
2017-Oct-14 19:00N 54°32' E 018°32'0 0.0
2017-Oct-14 18:30N 54°32' E 018°32'0 0.0
2017-Oct-14 18:00N 54°32' E 018°32'0 0.0
2017-Oct-14 17:30N 54°32' E 018°32'0 0.0
2017-Oct-14 17:00N 54°32' E 018°32'0 0.0
2017-Oct-14 16:30N 54°32' E 018°32'0 0.0
2017-Oct-14 16:00N 54°32' E 018°32'0 0.0
2017-Oct-14 15:30N 54°32' E 018°32'0 0.0
2017-Oct-14 15:00N 54°32' E 018°32'0 0.0
2017-Oct-14 14:30N 54°32' E 018°32'0 0.0
2017-Oct-14 14:00N 54°32' E 018°32'0 0.0
2017-Oct-14 13:30N 54°32' E 018°32'0 0.0
2017-Oct-14 13:00N 54°32' E 018°32'0 0.0
2017-Oct-14 12:30N 54°32' E 018°32'0 0.0
2017-Oct-14 12:00N 54°32' E 018°32'0 0.0
2017-Oct-14 11:30N 54°32' E 018°32'0 0.0
2017-Oct-14 11:00N 54°32' E 018°32'0 0.0
2017-Oct-14 10:30N 54°32' E 018°32'0 0.0
2017-Oct-14 10:00N 54°32' E 018°32'0 0.0
2017-Oct-14 09:30N 54°32' E 018°32'0 0.0
2017-Oct-14 09:00N 54°32' E 018°32'0 0.0
2017-Oct-14 08:30N 54°32' E 018°32'0 0.0
2017-Oct-14 08:00N 54°32' E 018°32'0 0.0
2017-Oct-14 07:30N 54°32' E 018°32'0 0.0
2017-Oct-14 07:00N 54°32' E 018°32'0 0.0
2017-Oct-14 06:30N 54°32' E 018°32'0 0.0
2017-Oct-14 06:00N 54°32' E 018°32'0 0.0
2017-Oct-14 05:30N 54°32' E 018°32'0 0.0
2017-Oct-14 05:00N 54°32' E 018°32'0 0.0
2017-Oct-14 04:30N 54°32' E 018°32'0 0.0
2017-Oct-14 04:00N 54°32' E 018°32'0 0.0
2017-Oct-14 03:30N 54°32' E 018°32'0 0.0
2017-Oct-14 03:00N 54°32' E 018°32'0 0.0
2017-Oct-14 02:30N 54°32' E 018°32'0 0.0
2017-Oct-14 01:59N 54°32' E 018°32'0 0.0
2017-Oct-14 01:30N 54°32' E 018°32'0 0.0
2017-Oct-14 01:00N 54°32' E 018°32'0 0.0
2017-Oct-14 00:30N 54°32' E 018°32'0 0.0
2017-Oct-14 00:00N 54°32' E 018°32'0 0.0
2017-Oct-13 23:30N 54°32' E 018°32'0 0.0
2017-Oct-13 23:00N 54°32' E 018°32'0 0.0
2017-Oct-13 22:30N 54°32' E 018°32'0 0.0
2017-Oct-13 22:00N 54°32' E 018°32'0 0.0
2017-Oct-13 21:30N 54°32' E 018°32'0 0.0
2017-Oct-13 21:00N 54°32' E 018°32'0 0.0
2017-Oct-13 20:29N 54°32' E 018°32'0 0.0
2017-Oct-13 20:00N 54°32' E 018°32'0 0.0
2017-Oct-13 19:30N 54°32' E 018°32'0 0.0
2017-Oct-13 19:00N 54°32' E 018°32'0 0.0
2017-Oct-13 18:30N 54°32' E 018°32'0 0.0
2017-Oct-13 17:59N 54°32' E 018°32'0 0.0
2017-Oct-13 17:30N 54°32' E 018°32'0 0.0
2017-Oct-13 17:00N 54°32' E 018°32'0 0.0
2017-Oct-13 16:29N 54°32' E 018°32'0 0.0
2017-Oct-13 16:00N 54°32' E 018°32'0 0.0
2017-Oct-13 15:29N 54°32' E 018°32'0 0.0
2017-Oct-13 15:00N 54°32' E 018°32'0 0.0
2017-Oct-13 14:30N 54°32' E 018°32'0 0.0
2017-Oct-13 13:59N 54°32' E 018°32'0 0.0
2017-Oct-13 13:29N 54°32' E 018°32'0 0.0
2017-Oct-13 13:00N 54°32' E 018°32'0 0.0
2017-Oct-13 12:29N 54°32' E 018°32'0 0.0
2017-Oct-13 12:00N 54°32' E 018°32'0 0.0
2017-Oct-13 11:30N 54°32' E 018°32'0 0.0
2017-Oct-13 11:00N 54°32' E 018°32'0 0.0
2017-Oct-13 10:29N 54°32' E 018°32'0 0.0
2017-Oct-13 09:59N 54°32' E 018°32'0 0.0
2017-Oct-13 09:29N 54°32' E 018°32'0 0.0
2017-Oct-13 08:59N 54°32' E 018°32'0 0.0
2017-Oct-13 08:30N 54°32' E 018°32'0 0.0
2017-Oct-13 07:59N 54°32' E 018°32'0 0.0
2017-Oct-13 07:29N 54°32' E 018°32'0 0.0
2017-Oct-13 06:59N 54°32' E 018°32'0 0.0
2017-Oct-13 06:29N 54°32' E 018°32'0 0.0
2017-Oct-13 05:59N 54°32' E 018°32'0 0.0
2017-Oct-13 05:29N 54°32' E 018°32'0 0.0
2017-Oct-13 04:59N 54°32' E 018°32'0 0.0
2017-Oct-13 04:29N 54°32' E 018°32'0 0.0
2017-Oct-13 03:59N 54°32' E 018°32'0 0.0
2017-Oct-13 03:30N 54°32' E 018°32'0 0.0
2017-Oct-13 03:00N 54°32' E 018°32'0 0.0
2017-Oct-13 02:29N 54°32' E 018°32'0 0.0
2017-Oct-13 01:59N 54°32' E 018°32'0 0.0
2017-Oct-13 01:29N 54°32' E 018°32'0 0.0
2017-Oct-13 00:59N 54°32' E 018°32'0 0.0
2017-Oct-13 00:29N 54°32' E 018°32'0 0.0
2017-Oct-12 23:59N 54°32' E 018°32'0 0.0
2017-Oct-12 23:29N 54°32' E 018°32'0 0.0
2017-Oct-12 22:59N 54°32' E 018°32'0 0.0
2017-Oct-12 22:29N 54°32' E 018°32'0 0.0
2017-Oct-12 21:59N 54°32' E 018°32'0 0.0
2017-Oct-12 21:29N 54°32' E 018°32'0 0.0
2017-Oct-12 20:59N 54°32' E 018°32'0 0.0
2017-Oct-12 20:29N 54°32' E 018°32'0 0.0
2017-Oct-12 19:59N 54°32' E 018°32'0 0.0
2017-Oct-12 19:29N 54°32' E 018°32'0 0.0
2017-Oct-12 18:59N 54°32' E 018°32'0 0.0
2017-Oct-12 18:29N 54°32' E 018°32'0 0.0
2017-Oct-12 17:59N 54°32' E 018°32'0 0.0
2017-Oct-12 17:29N 54°32' E 018°32'0 0.0
2017-Oct-12 16:59N 54°32' E 018°32'0 0.0
2017-Oct-12 16:29N 54°32' E 018°32'0 0.0
2017-Oct-12 15:59N 54°32' E 018°32'0 0.0
2017-Oct-12 15:29N 54°32' E 018°32'0 0.0
2017-Oct-12 14:59N 54°32' E 018°32'0 0.0
2017-Oct-12 14:29N 54°32' E 018°32'0 0.0
2017-Oct-12 13:59N 54°32' E 018°32'0 0.0
2017-Oct-12 13:29N 54°32' E 018°32'0 0.0
2017-Oct-12 12:59N 54°32' E 018°32'0 0.0
2017-Oct-12 12:29N 54°32' E 018°32'0 0.0
2017-Oct-12 11:59N 54°32' E 018°32'0 0.0
2017-Oct-12 11:29N 54°32' E 018°32'0 0.0
2017-Oct-12 10:59N 54°32' E 018°32'0 0.0
2017-Oct-12 10:29N 54°32' E 018°32'0 0.0
2017-Oct-12 09:59N 54°32' E 018°32'0 0.0
2017-Oct-12 09:29N 54°32' E 018°32'0 0.0
2017-Oct-12 08:59N 54°32' E 018°32'0 0.0
2017-Oct-12 08:29N 54°32' E 018°32'0 0.0
2017-Oct-12 07:59N 54°32' E 018°32'0 0.0
2017-Oct-12 07:29N 54°32' E 018°32'0 0.0
2017-Oct-12 06:59N 54°32' E 018°32'0 0.0
2017-Oct-12 06:29N 54°32' E 018°32'0 0.0
2017-Oct-12 05:59N 54°32' E 018°32'0 0.0
2017-Oct-12 05:29N 54°32' E 018°32'0 0.0
2017-Oct-12 04:59N 54°32' E 018°32'0 0.0
2017-Oct-12 04:29N 54°32' E 018°32'0 0.0
2017-Oct-12 03:59N 54°32' E 018°32'0 0.0
2017-Oct-12 03:29N 54°32' E 018°32'0 0.0
2017-Oct-12 02:59N 54°32' E 018°32'0 0.0
2017-Oct-12 02:29N 54°32' E 018°32'0 0.0
2017-Oct-12 01:59N 54°32' E 018°32'0 0.0
2017-Oct-12 01:29N 54°32' E 018°32'0 0.0
2017-Oct-12 00:59N 54°32' E 018°32'0 0.0
2017-Oct-12 00:29N 54°32' E 018°32'0 0.0
2017-Oct-11 23:59N 54°32' E 018°32'0 0.0
2017-Oct-11 23:29N 54°32' E 018°32'0 0.0
2017-Oct-11 22:59N 54°32' E 018°32'0 0.0
2017-Oct-11 22:29N 54°32' E 018°32'0 0.0
2017-Oct-11 21:59N 54°32' E 018°32'0 0.0
2017-Oct-11 21:29N 54°32' E 018°32'0 0.0
2017-Oct-11 20:59N 54°32' E 018°32'0 0.0
2017-Oct-11 20:29N 54°32' E 018°32'0 0.0
2017-Oct-11 19:59N 54°32' E 018°32'0 0.0
2017-Oct-11 19:29N 54°32' E 018°32'0 0.0
2017-Oct-11 18:59N 54°32' E 018°32'0 0.0
2017-Oct-11 18:29N 54°32' E 018°32'0 0.0
2017-Oct-11 17:59N 54°32' E 018°32'0 0.0
2017-Oct-11 17:29N 54°32' E 018°32'0 0.0
2017-Oct-11 16:59N 54°32' E 018°32'0 0.0
2017-Oct-10 23:59N 54°32' E 018°32'0 0.0
2017-Oct-10 23:29N 54°32' E 018°32'0 0.0
2017-Oct-10 22:59N 54°32' E 018°32'0 0.0
2017-Oct-10 22:29N 54°32' E 018°32'0 0.0
2017-Oct-10 21:59N 54°32' E 018°32'0 0.0
2017-Oct-10 21:29N 54°32' E 018°32'0 0.0
2017-Oct-10 20:59N 54°32' E 018°32'0 0.0
2017-Oct-10 20:29N 54°32' E 018°32'0 0.0
2017-Oct-10 19:59N 54°32' E 018°32'0 0.0
2017-Oct-10 19:29N 54°32' E 018°32'0 0.0
2017-Oct-10 18:59N 54°32' E 018°32'0 0.0
2017-Oct-10 18:29N 54°32' E 018°32'0 0.0
2017-Oct-10 17:59N 54°32' E 018°32'0 0.0
2017-Oct-10 17:29N 54°32' E 018°32'0 0.0
2017-Oct-10 16:59N 54°32' E 018°32'0 0.0
2017-Oct-10 16:29N 54°32' E 018°32'0 0.0
2017-Oct-10 15:59N 54°32' E 018°32'0 0.0
2017-Oct-10 15:29N 54°32' E 018°32'  
Track history (hours):
 
Tides and Currents Weather Stations Pressure Air Temp Water Temp Dewpoint Dewpoint Depression Visibility Wind Speed Wind Dir Waves Ship Positions

Rainbow Quest

Last reported at 2017-Oct-20 15:11 UTC. Time now 2017-Oct-20 16:18 UTC.
Position N 55°22' E 011°02'.

Length 180 m; draft 10.6 m.

Type: Cargo ship. MMSI: 236111696.

Date/timePositionNaut miles runAvg speedWind from/ knotsBaromVisibWave heightAir tempDewpointWater temp
2017-Oct-20 15:11N 55°22' E 011°02'212.3
2017-Oct-20 15:00N 55°20' E 011°02'611.3
2017-Oct-20 14:30N 55°14' E 011°06'1010.1
2017-Oct-20 13:30N 55°05' E 010°59'611.4
2017-Oct-20 13:00N 54°59' E 010°59'611.4
2017-Oct-20 12:30N 54°55' E 010°52'612.6
2017-Oct-20 12:00N 54°49' E 010°50'612.2
2017-Oct-20 11:30N 54°43' E 010°47'510.8
2017-Oct-20 11:00N 54°39' E 010°53'612.2
2017-Oct-20 10:30N 54°36' E 011°02'612.0
2017-Oct-20 10:00N 54°36' E 011°13'612.7
2017-Oct-20 09:30N 54°33' E 011°22'812.5
2017-Oct-20 08:52N 54°29' E 011°35'512.1
2017-Oct-20 08:29N 54°27' E 011°42'1611.6
2017-Oct-20 07:06N 54°26' E 012°09'110.8
2017-Oct-20 07:00N 54°27' E 012°11'611.3
2017-Oct-20 06:30N 54°32' E 012°14'510.7
2017-Oct-20 06:00N 54°37' E 012°18'4111.0
2017-Oct-20 02:15N 54°46' E 013°28'411.9
2017-Oct-20 01:55N 54°46' E 013°35'1711.5
2017-Oct-20 00:28N 54°42' E 014°03'611.7
2017-Oct-19 23:59N 54°40' E 014°12'13011.4
2017-Oct-19 12:35N 54°57' E 017°56'111.4
2017-Oct-19 12:28N 54°57' E 017°58'511.3
2017-Oct-19 12:00N 54°57' E 018°07'611.3
2017-Oct-19 11:30N 54°57' E 018°17'611.3
2017-Oct-19 11:00N 54°57' E 018°27'611.2
2017-Oct-19 10:30N 54°57' E 018°36'611.6
2017-Oct-19 10:00N 54°55' E 018°46'611.8
2017-Oct-19 09:30N 54°52' E 018°55'611.9
2017-Oct-19 09:00N 54°50' E 019°04'612.0
2017-Oct-19 08:30N 54°47' E 019°14'611.6
2017-Oct-19 08:00N 54°45' E 019°23'611.4
2017-Oct-19 07:30N 54°43' E 019°32'611.4
2017-Oct-19 06:57N 54°40' E 019°43'3 0.4
2017-Oct-19 00:24N 54°39' E 019°47'0 0.0
2017-Oct-19 00:00N 54°39' E 019°47'0 0.0
2017-Oct-18 23:30N 54°39' E 019°47'0 0.0
2017-Oct-18 22:57N 54°39' E 019°47'0 0.0
2017-Oct-18 22:27N 54°39' E 019°47'0 0.0
2017-Oct-18 21:57N 54°39' E 019°47'0 0.0
2017-Oct-18 15:54N 54°39' E 019°47'0 0.0
2017-Oct-18 04:36N 54°39' E 019°47'0 0.0
2017-Oct-18 04:30N 54°39' E 019°47'0 0.0
2017-Oct-18 04:00N 54°39' E 019°47'0 0.0
2017-Oct-18 03:27N 54°39' E 019°47'0 0.0
2017-Oct-18 03:00N 54°39' E 019°47'0 0.0
2017-Oct-18 02:24N 54°39' E 019°47'0 0.0
2017-Oct-18 02:00N 54°39' E 019°47'0 0.0
2017-Oct-18 01:30N 54°39' E 019°47'0 0.0
2017-Oct-18 00:57N 54°39' E 019°47'0 0.0
2017-Oct-18 00:30N 54°39' E 019°47'0 0.0
2017-Oct-18 00:00N 54°39' E 019°47'0 0.0
2017-Oct-17 23:30N 54°39' E 019°47'0 0.1
2017-Oct-17 23:00N 54°39' E 019°47'0 0.2
2017-Oct-17 22:24N 54°39' E 019°47'0 0.3
2017-Oct-17 22:00N 54°39' E 019°47'2 3.9
2017-Oct-17 21:30N 54°40' E 019°43'3 6.3
2017-Oct-17 21:00N 54°40' E 019°38'5 9.7
2017-Oct-17 20:30N 54°41' E 019°30'611.5
2017-Oct-17 20:00N 54°42' E 019°20'611.1
2017-Oct-17 19:30N 54°43' E 019°10'611.4
2017-Oct-17 19:00N 54°41' E 019°01'611.2
2017-Oct-17 18:30N 54°37' E 018°55'611.3
2017-Oct-17 18:00N 54°32' E 018°49'4 7.5
2017-Oct-17 17:30N 54°32' E 018°43'5 9.5
2017-Oct-17 17:00N 54°32' E 018°35'1 2.9
2017-Oct-17 16:30N 54°32' E 018°32'0 0.0
2017-Oct-17 16:00N 54°32' E 018°32'0 0.0
2017-Oct-17 15:30N 54°32' E 018°32'0 0.0
2017-Oct-17 15:00N 54°32' E 018°32'0 0.0
2017-Oct-17 14:30N 54°32' E 018°32'0 0.0
2017-Oct-17 14:00N 54°32' E 018°32'0 0.0
2017-Oct-17 13:30N 54°32' E 018°32'0 0.0
2017-Oct-17 13:00N 54°32' E 018°32'0 0.0
2017-Oct-17 12:30N 54°32' E 018°32'0 0.0
2017-Oct-17 12:00N 54°32' E 018°32'0 0.0
2017-Oct-17 11:30N 54°32' E 018°32'0 0.0
2017-Oct-17 11:00N 54°32' E 018°32'0 0.0
2017-Oct-17 10:30N 54°32' E 018°32'0 0.0
2017-Oct-17 10:00N 54°32' E 018°32'0 0.0
2017-Oct-17 09:30N 54°32' E 018°32'0 0.0
2017-Oct-17 09:00N 54°32' E 018°32'0 0.0
2017-Oct-17 08:30N 54°32' E 018°32'0 0.0
2017-Oct-17 08:00N 54°32' E 018°32'0 0.0
2017-Oct-17 07:30N 54°32' E 018°32'0 0.0
2017-Oct-17 07:00N 54°32' E 018°32'0 0.0
2017-Oct-17 06:30N 54°32' E 018°32'0 0.0
2017-Oct-17 06:00N 54°32' E 018°32'0 0.0
2017-Oct-17 05:30N 54°32' E 018°32'0 0.0
2017-Oct-17 05:00N 54°32' E 018°32'0 0.0
2017-Oct-17 04:30N 54°32' E 018°32'0 0.0
2017-Oct-17 04:00N 54°32' E 018°32'0 0.0
2017-Oct-17 03:30N 54°32' E 018°32'0 0.0
2017-Oct-17 03:00N 54°32' E 018°32'0 0.0
2017-Oct-17 02:30N 54°32' E 018°32'0 0.0
2017-Oct-17 02:00N 54°32' E 018°32'0 0.0
2017-Oct-17 01:30N 54°32' E 018°32'0 0.0
2017-Oct-17 01:00N 54°32' E 018°32'0 0.0
2017-Oct-17 00:30N 54°32' E 018°32'0 0.0
2017-Oct-17 00:00N 54°32' E 018°32'0 0.0
2017-Oct-16 23:30N 54°32' E 018°32'0 0.0
2017-Oct-16 23:00N 54°32' E 018°32'0 0.0
2017-Oct-16 22:30N 54°32' E 018°32'0 0.0
2017-Oct-16 22:00N 54°32' E 018°32'0 0.0
2017-Oct-16 21:30N 54°32' E 018°32'0 0.0
2017-Oct-16 21:00N 54°32' E 018°32'0 0.0
2017-Oct-16 20:30N 54°32' E 018°32'0 0.0
2017-Oct-16 20:00N 54°32' E 018°32'0 0.0
2017-Oct-16 19:30N 54°32' E 018°32'0 0.0
2017-Oct-16 19:00N 54°32' E 018°32'0 0.0
2017-Oct-16 18:30N 54°32' E 018°32'0 0.0
2017-Oct-16 18:00N 54°32' E 018°32'0 0.0
2017-Oct-16 17:30N 54°32' E 018°32'0 0.0
2017-Oct-16 17:00N 54°32' E 018°32'0 0.0
2017-Oct-16 16:30N 54°32' E 018°32'0 0.0
2017-Oct-16 16:00N 54°32' E 018°32'0 0.0
2017-Oct-16 15:30N 54°32' E 018°32'0 0.0
2017-Oct-16 15:00N 54°32' E 018°32'0 0.0
2017-Oct-16 14:00N 54°32' E 018°32'0 0.0
2017-Oct-16 13:30N 54°32' E 018°32'0 0.0
2017-Oct-16 13:00N 54°32' E 018°32'0 0.0
2017-Oct-16 12:30N 54°32' E 018°32'0 0.0
2017-Oct-16 12:00N 54°32' E 018°32'0 0.0
2017-Oct-16 11:30N 54°32' E 018°32'0 0.0
2017-Oct-16 11:00N 54°32' E 018°32'0 0.0
2017-Oct-16 10:30N 54°32' E 018°32'0 0.0
2017-Oct-16 10:00N 54°32' E 018°32'0 0.0
2017-Oct-16 09:30N 54°32' E 018°32'0 0.0
2017-Oct-16 09:00N 54°32' E 018°32'0 0.0
2017-Oct-16 08:30N 54°32' E 018°32'0 0.0
2017-Oct-16 08:00N 54°32' E 018°32'0 0.0
2017-Oct-16 07:30N 54°32' E 018°32'0 0.0
2017-Oct-16 07:00N 54°32' E 018°32'0 0.0
2017-Oct-16 06:30N 54°32' E 018°32'0 0.0
2017-Oct-16 06:00N 54°32' E 018°32'0 0.0
2017-Oct-16 05:30N 54°32' E 018°32'0 0.0
2017-Oct-16 05:00N 54°32' E 018°32'0 0.0
2017-Oct-16 04:30N 54°32' E 018°32'0 0.0
2017-Oct-16 04:00N 54°32' E 018°32'0 0.0
2017-Oct-16 03:30N 54°32' E 018°32'0 0.0
2017-Oct-16 03:00N 54°32' E 018°32'0 0.0
2017-Oct-16 02:30N 54°32' E 018°32'0 0.0
2017-Oct-16 02:00N 54°32' E 018°32'0 0.0
2017-Oct-16 01:30N 54°32' E 018°32'0 0.0
2017-Oct-16 01:00N 54°32' E 018°32'0 0.0
2017-Oct-16 00:30N 54°32' E 018°32'0 0.0
2017-Oct-16 00:00N 54°32' E 018°32'0 0.0
2017-Oct-15 23:30N 54°32' E 018°32'0 0.0
2017-Oct-15 23:00N 54°32' E 018°32'0 0.0
2017-Oct-15 22:30N 54°32' E 018°32'0 0.0
2017-Oct-15 22:00N 54°32' E 018°32'0 0.0
2017-Oct-15 21:30N 54°32' E 018°32'0 0.0
2017-Oct-15 21:00N 54°32' E 018°32'0 0.0
2017-Oct-15 20:27N 54°32' E 018°32'0 0.0
2017-Oct-15 20:00N 54°32' E 018°32'0 0.0
2017-Oct-15 19:30N 54°32' E 018°32'0 0.0
2017-Oct-15 19:00N 54°32' E 018°32'0 0.0
2017-Oct-15 18:30N 54°32' E 018°32'0 0.0
2017-Oct-15 18:00N 54°32' E 018°32'0 0.0
2017-Oct-15 17:30N 54°32' E 018°32'0 0.0
2017-Oct-15 17:00N 54°32' E 018°32'0 0.0
2017-Oct-15 16:30N 54°32' E 018°32'0 0.0
2017-Oct-15 16:00N 54°32' E 018°32'0 0.0
2017-Oct-15 15:30N 54°32' E 018°32'0 0.0
2017-Oct-15 15:00N 54°32' E 018°32'0 0.0
2017-Oct-15 14:00N 54°32' E 018°32'0 0.0
2017-Oct-15 13:30N 54°32' E 018°32'0 0.0
2017-Oct-15 13:00N 54°32' E 018°32'0 0.0
2017-Oct-15 12:30N 54°32' E 018°32'0 0.0
2017-Oct-15 12:00N 54°32' E 018°32'0 0.0
2017-Oct-15 11:30N 54°32' E 018°32'0 0.0
2017-Oct-15 11:00N 54°32' E 018°32'0 0.0
2017-Oct-15 10:30N 54°32' E 018°32'0 0.0
2017-Oct-15 10:00N 54°32' E 018°32'0 0.0
2017-Oct-15 09:30N 54°32' E 018°32'0 0.0
2017-Oct-15 09:00N 54°32' E 018°32'0 0.0
2017-Oct-15 08:30N 54°32' E 018°32'0 0.0
2017-Oct-15 08:00N 54°32' E 018°32'0 0.0
2017-Oct-15 07:30N 54°32' E 018°32'0 0.0
2017-Oct-15 07:00N 54°32' E 018°32'0 0.0
2017-Oct-15 06:30N 54°32' E 018°32'0 0.0
2017-Oct-15 06:00N 54°32' E 018°32'0 0.0
2017-Oct-15 05:30N 54°32' E 018°32'0 0.0
2017-Oct-15 05:00N 54°32' E 018°32'0 0.0
2017-Oct-15 04:30N 54°32' E 018°32'0 0.0
2017-Oct-15 04:00N 54°32' E 018°32'0 0.0
2017-Oct-15 03:30N 54°32' E 018°32'0 0.0
2017-Oct-15 03:00N 54°32' E 018°32'0 0.0
2017-Oct-15 02:30N 54°32' E 018°32'0 0.0
2017-Oct-15 02:00N 54°32' E 018°32'0 0.0
2017-Oct-15 01:30N 54°32' E 018°32'0 0.0
2017-Oct-15 01:00N 54°32' E 018°32'0 0.0
2017-Oct-15 00:30N 54°32' E 018°32'0 0.0
2017-Oct-15 00:00N 54°32' E 018°32'0 0.0
2017-Oct-14 23:30N 54°32' E 018°32'0 0.0
2017-Oct-14 23:00N 54°32' E 018°32'0 0.0
2017-Oct-14 22:30N 54°32' E 018°32'0 0.0
2017-Oct-14 22:00N 54°32' E 018°32'0 0.0
2017-Oct-14 21:30N 54°32' E 018°32'0 0.0
2017-Oct-14 21:00N 54°32' E 018°32'0 0.0
2017-Oct-14 20:30N 54°32' E 018°32'0 0.0
2017-Oct-14 20:00N 54°32' E 018°32'0 0.0
2017-Oct-14 19:30N 54°32' E 018°32'0 0.0
2017-Oct-14 19:00N 54°32' E 018°32'0 0.0
2017-Oct-14 18:30N 54°32' E 018°32'0 0.0
2017-Oct-14 18:00N 54°32' E 018°32'0 0.0
2017-Oct-14 17:30N 54°32' E 018°32'0 0.0
2017-Oct-14 17:00N 54°32' E 018°32'0 0.0
2017-Oct-14 16:30N 54°32' E 018°32'0 0.0
2017-Oct-14 16:00N 54°32' E 018°32'0 0.0
2017-Oct-14 15:30N 54°32' E 018°32'0 0.0
2017-Oct-14 15:00N 54°32' E 018°32'0 0.0
2017-Oct-14 14:30N 54°32' E 018°32'0 0.0
2017-Oct-14 14:00N 54°32' E 018°32'0 0.0
2017-Oct-14 13:30N 54°32' E 018°32'0 0.0
2017-Oct-14 13:00N 54°32' E 018°32'0 0.0
2017-Oct-14 12:30N 54°32' E 018°32'0 0.0
2017-Oct-14 12:00N 54°32' E 018°32'0 0.0
2017-Oct-14 11:30N 54°32' E 018°32'0 0.0
2017-Oct-14 11:00N 54°32' E 018°32'0 0.0
2017-Oct-14 10:30N 54°32' E 018°32'0 0.0
2017-Oct-14 10:00N 54°32' E 018°32'0 0.0
2017-Oct-14 09:30N 54°32' E 018°32'0 0.0
2017-Oct-14 09:00N 54°32' E 018°32'0 0.0
2017-Oct-14 08:30N 54°32' E 018°32'0 0.0
2017-Oct-14 08:00N 54°32' E 018°32'0 0.0
2017-Oct-14 07:30N 54°32' E 018°32'0 0.0
2017-Oct-14 07:00N 54°32' E 018°32'0 0.0
2017-Oct-14 06:30N 54°32' E 018°32'0 0.0
2017-Oct-14 06:00N 54°32' E 018°32'0 0.0
2017-Oct-14 05:30N 54°32' E 018°32'0 0.0
2017-Oct-14 05:00N 54°32' E 018°32'0 0.0
2017-Oct-14 04:30N 54°32' E 018°32'0 0.0
2017-Oct-14 04:00N 54°32' E 018°32'0 0.0
2017-Oct-14 03:30N 54°32' E 018°32'0 0.0
2017-Oct-14 03:00N 54°32' E 018°32'0 0.0
2017-Oct-14 02:30N 54°32' E 018°32'0 0.0
2017-Oct-14 01:59N 54°32' E 018°32'0 0.0
2017-Oct-14 01:30N 54°32' E 018°32'0 0.0
2017-Oct-14 01:00N 54°32' E 018°32'0 0.0
2017-Oct-14 00:30N 54°32' E 018°32'0 0.0
2017-Oct-14 00:00N 54°32' E 018°32'0 0.0
2017-Oct-13 23:30N 54°32' E 018°32'0 0.0
2017-Oct-13 23:00N 54°32' E 018°32'0 0.0
2017-Oct-13 22:30N 54°32' E 018°32'0 0.0
2017-Oct-13 22:00N 54°32' E 018°32'0 0.0
2017-Oct-13 21:30N 54°32' E 018°32'0 0.0
2017-Oct-13 21:00N 54°32' E 018°32'0 0.0
2017-Oct-13 20:29N 54°32' E 018°32'0 0.0
2017-Oct-13 20:00N 54°32' E 018°32'0 0.0
2017-Oct-13 19:30N 54°32' E 018°32'0 0.0
2017-Oct-13 19:00N 54°32' E 018°32'0 0.0
2017-Oct-13 18:30N 54°32' E 018°32'0 0.0
2017-Oct-13 17:59N 54°32' E 018°32'0 0.0
2017-Oct-13 17:30N 54°32' E 018°32'0 0.0
2017-Oct-13 17:00N 54°32' E 018°32'0 0.0
2017-Oct-13 16:29N 54°32' E 018°32'0 0.0
2017-Oct-13 16:00N 54°32' E 018°32'0 0.0
2017-Oct-13 15:29N 54°32' E 018°32'0 0.0
2017-Oct-13 15:00N 54°32' E 018°32'0 0.0
2017-Oct-13 14:30N 54°32' E 018°32'0 0.0
2017-Oct-13 13:59N 54°32' E 018°32'0 0.0
2017-Oct-13 13:29N 54°32' E 018°32'0 0.0
2017-Oct-13 13:00N 54°32' E 018°32'0 0.0
2017-Oct-13 12:29N 54°32' E 018°32'0 0.0
2017-Oct-13 12:00N 54°32' E 018°32'0 0.0
2017-Oct-13 11:30N 54°32' E 018°32'0 0.0
2017-Oct-13 11:00N 54°32' E 018°32'0 0.0
2017-Oct-13 10:29N 54°32' E 018°32'0 0.0
2017-Oct-13 09:59N 54°32' E 018°32'0 0.0
2017-Oct-13 09:29N 54°32' E 018°32'0 0.0
2017-Oct-13 08:59N 54°32' E 018°32'0 0.0
2017-Oct-13 08:30N 54°32' E 018°32'0 0.0
2017-Oct-13 07:59N 54°32' E 018°32'0 0.0
2017-Oct-13 07:29N 54°32' E 018°32'0 0.0
2017-Oct-13 06:59N 54°32' E 018°32'0 0.0
2017-Oct-13 06:29N 54°32' E 018°32'0 0.0
2017-Oct-13 05:59N 54°32' E 018°32'0 0.0
2017-Oct-13 05:29N 54°32' E 018°32'0 0.0
2017-Oct-13 04:59N 54°32' E 018°32'0 0.0
2017-Oct-13 04:29N 54°32' E 018°32'0 0.0
2017-Oct-13 03:59N 54°32' E 018°32'0 0.0
2017-Oct-13 03:30N 54°32' E 018°32'0 0.0
2017-Oct-13 03:00N 54°32' E 018°32'0 0.0
2017-Oct-13 02:29N 54°32' E 018°32'0 0.0
2017-Oct-13 01:59N 54°32' E 018°32'0 0.0
2017-Oct-13 01:29N 54°32' E 018°32'0 0.0
2017-Oct-13 00:59N 54°32' E 018°32'0 0.0
2017-Oct-13 00:29N 54°32' E 018°32'0 0.0
2017-Oct-12 23:59N 54°32' E 018°32'0 0.0
2017-Oct-12 23:29N 54°32' E 018°32'0 0.0
2017-Oct-12 22:59N 54°32' E 018°32'0 0.0
2017-Oct-12 22:29N 54°32' E 018°32'0 0.0
2017-Oct-12 21:59N 54°32' E 018°32'0 0.0
2017-Oct-12 21:29N 54°32' E 018°32'0 0.0
2017-Oct-12 20:59N 54°32' E 018°32'0 0.0
2017-Oct-12 20:29N 54°32' E 018°32'0 0.0
2017-Oct-12 19:59N 54°32' E 018°32'0 0.0
2017-Oct-12 19:29N 54°32' E 018°32'0 0.0
2017-Oct-12 18:59N 54°32' E 018°32'0 0.0
2017-Oct-12 18:29N 54°32' E 018°32'0 0.0
2017-Oct-12 17:59N 54°32' E 018°32'0 0.0
2017-Oct-12 17:29N 54°32' E 018°32'0 0.0
2017-Oct-12 16:59N 54°32' E 018°32'0 0.0
2017-Oct-12 16:29N 54°32' E 018°32'0 0.0
2017-Oct-12 15:59N 54°32' E 018°32'0 0.0
2017-Oct-12 15:29N 54°32' E 018°32'0 0.0
2017-Oct-12 14:59N 54°32' E 018°32'0 0.0
2017-Oct-12 14:29N 54°32' E 018°32'0 0.0
2017-Oct-12 13:59N 54°32' E 018°32'0 0.0
2017-Oct-12 13:29N 54°32' E 018°32'0 0.0
2017-Oct-12 12:59N 54°32' E 018°32'0 0.0
2017-Oct-12 12:29N 54°32' E 018°32'0 0.0
2017-Oct-12 11:59N 54°32' E 018°32'0 0.0
2017-Oct-12 11:29N 54°32' E 018°32'0 0.0
2017-Oct-12 10:59N 54°32' E 018°32'0 0.0
2017-Oct-12 10:29N 54°32' E 018°32'0 0.0
2017-Oct-12 09:59N 54°32' E 018°32'0 0.0
2017-Oct-12 09:29N 54°32' E 018°32'0 0.0
2017-Oct-12 08:59N 54°32' E 018°32'0 0.0
2017-Oct-12 08:29N 54°32' E 018°32'0 0.0
2017-Oct-12 07:59N 54°32' E 018°32'0 0.0
2017-Oct-12 07:29N 54°32' E 018°32'0 0.0
2017-Oct-12 06:59N 54°32' E 018°32'0 0.0
2017-Oct-12 06:29N 54°32' E 018°32'0 0.0
2017-Oct-12 05:59N 54°32' E 018°32'0 0.0
2017-Oct-12 05:29N 54°32' E 018°32'0 0.0
2017-Oct-12 04:59N 54°32' E 018°32'0 0.0
2017-Oct-12 04:29N 54°32' E 018°32'0 0.0
2017-Oct-12 03:59N 54°32' E 018°32'0 0.0
2017-Oct-12 03:29N 54°32' E 018°32'0 0.0
2017-Oct-12 02:59N 54°32' E 018°32'0 0.0
2017-Oct-12 02:29N 54°32' E 018°32'0 0.0
2017-Oct-12 01:59N 54°32' E 018°32'0 0.0
2017-Oct-12 01:29N 54°32' E 018°32'0 0.0
2017-Oct-12 00:59N 54°32' E 018°32'0 0.0
2017-Oct-12 00:29N 54°32' E 018°32'0 0.0
2017-Oct-11 23:59N 54°32' E 018°32'0 0.0
2017-Oct-11 23:29N 54°32' E 018°32'0 0.0
2017-Oct-11 22:59N 54°32' E 018°32'0 0.0
2017-Oct-11 22:29N 54°32' E 018°32'0 0.0
2017-Oct-11 21:59N 54°32' E 018°32'0 0.0
2017-Oct-11 21:29N 54°32' E 018°32'0 0.0
2017-Oct-11 20:59N 54°32' E 018°32'0 0.0
2017-Oct-11 20:29N 54°32' E 018°32'0 0.0
2017-Oct-11 19:59N 54°32' E 018°32'0 0.0
2017-Oct-11 19:29N 54°32' E 018°32'0 0.0
2017-Oct-11 18:59N 54°32' E 018°32'0 0.0
2017-Oct-11 18:29N 54°32' E 018°32'0 0.0
2017-Oct-11 17:59N 54°32' E 018°32'0 0.0
2017-Oct-11 17:29N 54°32' E 018°32'0 0.0
2017-Oct-11 16:59N 54°32' E 018°32'0 0.0
2017-Oct-10 23:59N 54°32' E 018°32'0 0.0
2017-Oct-10 23:29N 54°32' E 018°32'0 0.0
2017-Oct-10 22:59N 54°32' E 018°32'0 0.0
2017-Oct-10 22:29N 54°32' E 018°32'0 0.0
2017-Oct-10 21:59N 54°32' E 018°32'0 0.0
2017-Oct-10 21:29N 54°32' E 018°32'0 0.0
2017-Oct-10 20:59N 54°32' E 018°32'0 0.0
2017-Oct-10 20:29N 54°32' E 018°32'0 0.0
2017-Oct-10 19:59N 54°32' E 018°32'0 0.0
2017-Oct-10 19:29N 54°32' E 018°32'0 0.0
2017-Oct-10 18:59N 54°32' E 018°32'0 0.0
2017-Oct-10 18:29N 54°32' E 018°32'0 0.0
2017-Oct-10 17:59N 54°32' E 018°32'0 0.0
2017-Oct-10 17:29N 54°32' E 018°32'0 0.0
2017-Oct-10 16:59N 54°32' E 018°32'0 0.0
2017-Oct-10 16:29N 54°32' E 018°32'0 0.0
2017-Oct-10 15:59N 54°32' E 018°32'0 0.0
2017-Oct-10 15:29N 54°32' E 018°32'  

Dump ship's entire track history